Pacific - South Coast: Past 24 Hour Conditions

 

East Dellwood - 46207

10:00 AM PDT 30 October 2014Buoy position: 50.88N 129.93W
This table is a summary of hourly weather conditions for the past 24 hours.
Date / Time
(PDT)
Wind(knots) Wave height(m) Wave period(s) Pressure(kPa) Air tempC) Water tempC)
30 October 2014
10:00 SSW 14 gust 18 4.9 10.0 100.0 11 13
9:00 SSW 16 gust 21 4.7 10.0 99.9 13 13
8:00 SSW 8 gust 14 4.7 10.0 99.8 12 13
7:00 SW 19 gust 23 5.2 9.0 99.8 12 13
6:00 SSE 35 gust 45 5.7 10.0 99.7 12 13
5:00 SE 35 gust 45 5.4 8.0 99.7 13 13
4:00 SE 33 gust 43 4.8 8.0 100.0 13 13
3:00 SE 33 gust 39 4.9 9.0 100.1 14 13
2:00 SE 31 gust 39 4.7 8.0 100.2 14 13
1:00 N/A N/A N/A N/A N/A N/A
0:00 SE 33 gust 41 4.0 8.0 100.4 14 13
29 October 2014
23:00 SE 31 gust 39 3.6 8.0 100.6 13 13
22:00 SE 29 gust 37 3.5 7.0 100.6 13 13
21:00 SSE 29 gust 37 3.1 7.0 100.7 13 13
20:00 SSE 27 gust 31 2.8 9.0 100.8 13 13
19:00 SSE 23 gust 29 2.5 8.0 100.9 13 13
18:00 N/A N/A N/A N/A N/A N/A
17:00 SE 23 gust 27 2.5 11.0 101.1 13 13
16:00 SSE 21 gust 27 2.6 11.0 101.1 13 13
15:00 SSE 21 gust 29 2.6 10.0 101.2 12 13
14:00 SSE 16 gust 19 2.7 10.0 101.3 12 13
13:00 SSE 18 gust 21 2.9 11.0 101.3 13 13
12:00 SSE 18 gust 21 3.1 11.0 101.4 12 13
11:00 SE 12 gust 16 3.2 9.0 101.4 12 13
10:00 SE 12 gust 14 3.1 12.0 101.3 12 13
 
Map of Pacific - South Coast marine weather areas Tsawwassen Ferry Terminal South Nomad - 46036 Sentry Shoal - 46131 South Brooks - 46132 Halibut Bank - 46146 South Moresby - 46147 South Hecate Strait - 46185 West Sea Otter - 46204 La Perouse Bank - 46206 East Dellwood - 46207 Discovery Island Esquimalt Harbour Kelp Reefs Malahat Race Rocks Lightstation Saturna Island Sheringham Point University of Victoria Victoria Gonzales Victoria Int'l Airport Ballenas Islands Campbell River Airport Comox Airport Entrance Island Fanny Island Nanaimo Airport Port Hardy Airport Sisters Islets Estevan Point Sartine Island Solander Island Tofino Airport Grief Point Powell River Airport Sechelt Cape St.James Bella Bella Airport Bella Coola Airport Cathedral Point Herbert Island Point Atkinson Sand Heads Lightstation Vancouver Harbour Vancouver Int'l Airport West Vancouver Port Alberni Howe Sound - Pam Rocks Squamish Airport